Time;durP1;ratioP1;P1;durP2;ratioP2;P2;SDS_P1;SDS_P2;PMS_P1;PMS_P2;Temp;Humidity;BMP_temperature;BMP_pressure;BME280_temperature;BME280_humidity;BME280_pressure;Samples;Min_cycle;Max_cycle;Signal;HPM_P1;HPM_P2
2021/08/10 00:00:29;;;;;;;;;7.00;6.00;;;;;21.66;59.97;101340.09;5050930;28;45668;-63
2021/08/10 00:02:55;;;;;;;;;7.50;5.00;;;;;21.65;59.99;101337.53;5051807;28;45306;-63
2021/08/10 00:05:20;;;;;;;;;4.75;4.00;;;;;21.65;60.35;101341.03;5053838;28;45245;-62
2021/08/10 00:07:46;;;;;;;;;5.25;5.25;;;;;21.67;59.93;101340.94;5050825;28;45371;-63
2021/08/10 00:10:12;;;;;;;;;4.75;4.50;;;;;21.55;60.47;101331.97;5053618;28;45291;-63
2021/08/10 00:12:38;;;;;;;;;4.75;4.00;;;;;21.52;60.38;101335.66;5050234;28;45573;-62
2021/08/10 00:15:06;;;;;;;;;5.50;5.50;;;;;21.52;60.37;101334.81;5052877;28;45405;-62
2021/08/10 00:17:32;;;;;;;;;8.25;7.00;;;;;21.51;60.68;101339.25;5052086;28;45679;-62
2021/08/10 00:19:57;;;;;;;;;4.75;4.75;;;;;21.47;60.44;101339.56;5050158;28;45956;-62
2021/08/10 00:22:22;;;;;;;;;6.00;4.25;;;;;21.46;61.00;101338.72;5051308;28;45413;-60
2021/08/10 00:24:48;;;;;;;;;5.25;4.75;;;;;21.36;61.93;101331.44;5053211;28;45444;-61
2021/08/10 00:27:16;;;;;;;;;4.50;3.50;;;;;21.31;61.60;101338.81;5052092;28;45437;-62
2021/08/10 00:29:42;;;;;;;;;5.25;3.50;;;;;21.29;61.69;101330.13;5050904;28;45706;-62
2021/08/10 00:32:07;;;;;;;;;5.75;4.75;;;;;21.29;61.73;101325.69;5052790;28;45181;-62
2021/08/10 00:34:33;;;;;;;;;4.25;4.00;;;;;21.27;62.16;101332.03;5050565;28;46232;-62
2021/08/10 00:36:58;;;;;;;;;4.75;4.75;;;;;21.18;62.58;101325.47;5054648;28;45540;-63
2021/08/10 00:39:23;;;;;;;;;4.00;4.00;;;;;21.15;62.47;101323.03;5051922;28;45504;-62
2021/08/10 00:41:49;;;;;;;;;6.25;4.75;;;;;21.20;62.95;101332.34;5051680;28;45738;-62
2021/08/10 00:44:15;;;;;;;;;4.00;3.50;;;;;21.16;63.10;101332.66;5054019;28;45465;-62
2021/08/10 00:46:40;;;;;;;;;4.00;4.00;;;;;21.09;63.10;101328.69;5053651;28;45473;-61
2021/08/10 00:49:06;;;;;;;;;4.75;4.75;;;;;21.02;62.85;101327.38;5050030;28;45298;-62
2021/08/10 00:51:31;;;;;;;;;6.00;5.50;;;;;21.01;64.26;101338.88;5052833;28;45262;-62
2021/08/10 00:53:58;;;;;;;;;3.75;3.75;;;;;20.93;64.18;101340.22;5055172;28;45330;-61
2021/08/10 00:56:23;;;;;;;;;6.50;4.50;;;;;20.89;63.68;101332.56;5051292;28;45291;-62
2021/08/10 00:58:48;;;;;;;;;5.00;5.00;;;;;20.90;64.56;101340.41;5053034;28;45369;-62
2021/08/10 01:01:15;;;;;;;;;5.75;4.00;;;;;20.92;64.16;101349.09;5050179;28;45676;-62
2021/08/10 01:03:40;;;;;;;;;4.25;4.25;;;;;20.91;64.70;101351.81;5051068;28;45486;-62
2021/08/10 01:06:11;;;;;;;;;6.25;5.00;;;;;20.90;65.09;101350.97;5050686;28;45284;-62
2021/08/10 01:09:01;;;;;;;;;5.75;4.00;;;;;20.87;64.99;101353.81;5050258;28;45742;-62
2021/08/10 01:11:52;;;;;;;;;6.00;5.00;;;;;20.83;66.63;101376.06;5056035;28;45277;-61
2021/08/10 01:14:28;;;;;;;;;5.25;4.00;;;;;20.78;66.02;101378.13;5049666;28;45650;-61
2021/08/10 01:17:01;;;;;;;;;7.00;7.00;;;;;20.73;65.95;101369.63;5050977;28;45415;-60
2021/08/10 01:19:44;;;;;;;;;6.00;4.25;;;;;20.77;66.76;101371.13;5051189;28;45310;-60
2021/08/10 01:22:17;;;;;;;;;6.50;4.25;;;;;20.76;67.32;101372.09;5051738;28;45327;-60
2021/08/10 01:24:49;;;;;;;;;5.25;4.00;;;;;20.72;68.47;101377.66;5053432;28;45287;-60
2021/08/10 01:27:30;;;;;;;;;5.75;5.75;;;;;20.65;68.63;101377.19;5050371;28;46675;-63
2021/08/10 01:30:10;;;;;;;;;5.50;5.50;;;;;20.63;69.42;101365.84;5051892;28;45621;-62
2021/08/10 01:32:37;;;;;;;;;7.75;5.75;;;;;20.54;70.18;101361.09;5052263;28;45247;-60
2021/08/10 01:35:03;;;;;;;;;8.25;6.75;;;;;20.46;70.85;101366.84;5051657;28;45363;-61
2021/08/10 01:37:32;;;;;;;;;5.00;4.00;;;;;20.41;71.93;101357.47;5051412;28;45289;-61
2021/08/10 01:40:06;;;;;;;;;6.00;5.00;;;;;20.30;72.47;101358.09;5050636;28;45701;-61
2021/08/10 01:42:35;;;;;;;;;8.50;6.50;;;;;20.22;73.16;101352.38;5049096;28;45493;-61
2021/08/10 01:45:02;;;;;;;;;6.00;5.75;;;;;20.16;73.74;101350.09;5057429;28;45553;-61
2021/08/10 01:47:30;;;;;;;;;5.00;5.00;;;;;20.16;73.14;101339.53;5058250;28;47551;-60
2021/08/10 01:49:58;;;;;;;;;11.25;7.00;;;;;20.16;73.34;101343.03;5057954;28;45837;-60
2021/08/10 01:52:26;;;;;;;;;5.00;4.25;;;;;20.15;74.01;101343.97;5058029;28;45433;-60
2021/08/10 01:54:52;;;;;;;;;6.00;6.00;;;;;20.16;74.66;101348.31;5058613;28;45311;-60
2021/08/10 01:57:18;;;;;;;;;7.00;5.00;;;;;20.11;77.11;101354.81;5059086;28;45626;-61
2021/08/10 01:59:48;;;;;;;;;5.75;5.75;;;;;19.99;77.17;101344.00;5058362;28;45813;-61
2021/08/10 02:02:14;;;;;;;;;7.75;6.00;;;;;19.90;77.93;101351.59;5057388;28;45532;-60
2021/08/10 02:04:41;;;;;;;;;7.00;5.50;;;;;19.89;79.93;101365.72;5059129;28;45544;-61
2021/08/10 02:07:07;;;;;;;;;6.00;5.75;;;;;19.81;80.79;101371.41;5059411;28;47019;-62
2021/08/10 02:09:33;;;;;;;;;6.75;6.00;;;;;19.80;81.25;101376.78;5057780;28;45466;-63
2021/08/10 02:12:01;;;;;;;;;7.75;5.75;;;;;19.74;82.34;101378.81;5059687;28;45172;-61
2021/08/10 02:14:28;;;;;;;;;10.00;6.25;;;;;19.67;82.51;101381.91;5059632;28;45295;-62
2021/08/10 02:16:57;;;;;;;;;5.75;5.50;;;;;19.58;90.39;101385.88;5058346;28;45522;-62
2021/08/10 02:19:22;;;;;;;;;6.00;5.50;;;;;19.55;83.69;101377.28;5049864;28;45498;-62
2021/08/10 02:21:50;;;;;;;;;7.75;7.75;;;;;19.50;85.48;101374.88;5055092;28;45487;-62
2021/08/10 02:24:23;;;;;;;;;8.50;6.75;;;;;19.43;84.93;101368.25;5047577;28;45851;-62
2021/08/10 02:27:10;;;;;;;;;6.00;4.75;;;;;19.35;87.95;101363.38;5056946;28;47419;-62
2021/08/10 02:29:41;;;;;;;;;11.75;8.75;;;;;19.33;88.74;101352.06;5044316;28;45433;-65
2021/08/10 02:32:10;;;;;;;;;6.25;6.00;;;;;19.26;91.32;101348.06;5057211;28;45408;-64
2021/08/10 02:34:37;;;;;;;;;8.00;7.00;;;;;19.07;93.61;101350.84;5053853;28;45818;-64
2021/08/10 02:37:06;;;;;;;;;8.75;8.50;;;;;18.93;93.98;101348.06;5055697;28;46204;-63
2021/08/10 02:39:36;;;;;;;;;7.25;6.50;;;;;18.81;92.94;101341.66;5053137;28;45363;-63
2021/08/10 02:42:02;;;;;;;;;8.50;6.00;;;;;18.79;90.33;101356.69;5053391;28;45433;-63
2021/08/10 02:44:28;;;;;;;;;9.50;6.50;;;;;18.80;89.50;101352.28;5056247;28;45336;-62
2021/08/10 02:46:54;;;;;;;;;6.75;5.50;;;;;18.84;89.66;101361.75;5055914;28;45361;-62
2021/08/10 02:49:19;;;;;;;;;6.75;6.75;;;;;18.86;87.96;101354.59;5053661;28;45276;-62
2021/08/10 02:51:45;;;;;;;;;7.00;7.00;;;;;18.94;87.85;101360.31;5053861;28;45281;-65
2021/08/10 02:54:10;;;;;;;;;9.00;7.50;;;;;18.99;88.49;101363.53;5056360;28;45179;-65
2021/08/10 02:56:47;;;;;;;;;8.75;8.00;;;;;19.01;87.01;101353.78;5054012;28;45695;-65
2021/08/10 02:59:40;;;;;;;;;8.00;6.25;;;;;19.10;86.93;101345.41;5055181;28;46116;-65
2021/08/10 03:02:16;;;;;;;;;13.25;8.00;;;;;19.17;86.76;101345.06;5055242;28;45218;-65
2021/08/10 03:04:48;;;;;;;;;7.50;5.75;;;;;19.25;85.96;101340.25;5053905;28;45221;-64
2021/08/10 03:07:14;;;;;;;;;6.75;5.50;;;;;19.28;85.76;101338.28;5052914;28;45995;-64
2021/08/10 03:09:40;;;;;;;;;5.75;5.75;;;;;19.33;85.24;101345.94;5055914;28;45162;-65
2021/08/10 03:12:08;;;;;;;;;7.00;7.00;;;;;19.33;85.40;101356.50;5056451;28;45240;-64
2021/08/10 03:14:35;;;;;;;;;7.50;7.00;;;;;19.31;85.31;101353.09;5050691;28;45427;-65
2021/08/10 03:17:06;;;;;;;;;10.50;7.25;;;;;19.34;85.18;101352.91;5064564;28;47312;-65
2021/08/10 03:19:37;;;;;;;;;5.75;5.75;;;;;19.33;85.54;101359.13;5056275;28;45478;-65
2021/08/10 03:22:04;;;;;;;;;7.50;5.75;;;;;19.33;85.26;101367.88;5055495;28;45309;-64
2021/08/10 03:24:30;;;;;;;;;8.75;6.50;;;;;19.35;84.93;101359.88;5053530;28;45387;-64
2021/08/10 03:27:01;;;;;;;;;7.50;6.50;;;;;19.39;85.23;101350.88;5052623;28;45311;-64
2021/08/10 03:29:28;;;;;;;;;7.00;7.00;;;;;19.43;84.57;101339.25;5059736;28;45723;-64
2021/08/10 03:31:54;;;;;;;;;9.50;8.00;;;;;19.47;85.06;101346.06;5055111;28;45526;-64
2021/08/10 03:34:21;;;;;;;;;8.50;8.00;;;;;19.43;84.60;101344.53;5053305;28;45448;-64
2021/08/10 03:36:48;;;;;;;;;8.75;6.00;;;;;19.39;84.05;101340.34;5053595;28;46211;-64
2021/08/10 03:39:15;;;;;;;;;6.25;5.50;;;;;19.34;84.49;101342.38;5053628;28;45299;-64
2021/08/10 03:41:43;;;;;;;;;7.00;6.75;;;;;19.28;83.76;101345.34;5052389;28;45281;-64
2021/08/10 03:44:09;;;;;;;;;8.75;5.25;;;;;19.24;83.73;101339.41;5060029;28;45520;-64
2021/08/10 03:46:35;;;;;;;;;10.00;7.00;;;;;19.23;84.45;101337.69;5061123;28;45429;-64
2021/08/10 03:49:00;;;;;;;;;5.50;5.00;;;;;19.22;83.63;101343.03;5061291;28;45518;-64
2021/08/10 03:51:27;;;;;;;;;6.75;5.50;;;;;19.20;84.65;101343.09;5061733;28;45345;-64
2021/08/10 03:53:52;;;;;;;;;6.25;6.25;;;;;19.18;84.63;101344.97;5062142;28;45481;-62
2021/08/10 03:56:22;;;;;;;;;9.25;7.00;;;;;19.14;84.51;101344.28;5076750;27;47412;-63
2021/08/10 03:58:49;;;;;;;;;9.25;7.25;;;;;19.18;84.54;101346.75;5060952;28;45694;-62
2021/08/10 04:01:16;;;;;;;;;11.25;8.50;;;;;19.17;84.65;101348.56;5062026;28;45378;-63
2021/08/10 04:03:43;;;;;;;;;7.25;6.00;;;;;19.19;84.37;101340.56;5077370;28;46043;-63
2021/08/10 04:06:11;;;;;;;;;6.25;6.25;;;;;19.18;83.95;101337.06;5061537;28;45299;-63
2021/08/10 04:08:37;;;;;;;;;8.50;7.00;;;;;19.20;84.22;101347.53;5049672;28;45426;-62
2021/08/10 04:11:03;;;;;;;;;6.50;6.50;;;;;19.21;83.94;101349.22;5058983;28;45529;-63
2021/08/10 04:13:31;;;;;;;;;8.00;6.50;;;;;19.23;84.31;101344.75;5059105;28;45804;-62
2021/08/10 04:16:00;;;;;;;;;7.75;7.75;;;;;19.25;84.13;101349.00;5058720;28;45500;-62
2021/08/10 04:18:29;;;;;;;;;18.25;16.00;;;;;19.27;83.71;101351.56;5061362;28;45681;-61
2021/08/10 04:20:55;;;;;;;;;11.25;9.50;;;;;19.27;84.15;101359.47;5060143;28;45383;-61
2021/08/10 04:23:22;;;;;;;;;23.50;18.25;;;;;19.29;84.04;101357.59;5059061;28;45568;-62
2021/08/10 04:25:48;;;;;;;;;9.50;7.75;;;;;19.30;84.00;101356.66;5058511;28;45391;-61
2021/08/10 04:28:14;;;;;;;;;9.00;8.25;;;;;19.34;83.51;101358.19;5058754;28;45728;-63
2021/08/10 04:30:41;;;;;;;;;8.50;7.75;;;;;19.33;84.09;101365.25;5057495;28;45562;-62
2021/08/10 04:33:06;;;;;;;;;10.75;10.00;;;;;19.35;83.66;101362.53;5058627;28;45399;-61
2021/08/10 04:35:32;;;;;;;;;10.75;7.00;;;;;19.38;83.78;101365.00;5059041;28;46627;-63
2021/08/10 04:37:57;;;;;;;;;9.50;7.50;;;;;19.39;83.73;101364.06;5059880;28;45615;-60
2021/08/10 04:40:27;;;;;;;;;5.50;5.50;;;;;19.43;84.03;101363.81;5060815;28;45259;-62
2021/08/10 04:42:52;;;;;;;;;10.75;8.00;;;;;19.44;83.51;101357.63;5061406;28;45172;-61
2021/08/10 04:45:18;;;;;;;;;7.75;7.75;;;;;19.47;83.99;101350.47;5060349;28;46004;-60
2021/08/10 04:47:43;;;;;;;;;9.00;8.75;;;;;19.52;83.90;101351.91;5060785;28;45241;-63
2021/08/10 04:50:09;;;;;;;;;10.50;10.00;;;;;19.59;83.67;101357.72;5060697;28;45135;-61
2021/08/10 04:52:34;;;;;;;;;13.50;8.00;;;;;19.63;84.10;101359.28;5060956;28;45373;-62
2021/08/10 04:54:59;;;;;;;;;11.00;7.50;;;;;19.65;83.96;101368.81;5060360;28;46275;-61
2021/08/10 04:57:25;;;;;;;;;11.50;9.50;;;;;19.67;83.87;101364.28;5059580;28;45319;-62
2021/08/10 04:59:51;;;;;;;;;9.75;7.50;;;;;19.71;83.43;101364.97;5060733;28;45316;-60
2021/08/10 05:02:17;;;;;;;;;10.25;8.00;;;;;19.71;83.59;101362.34;5058882;28;45569;-62
2021/08/10 05:04:43;;;;;;;;;9.25;8.75;;;;;19.71;83.42;101365.81;5060510;28;45830;-61
2021/08/10 05:07:09;;;;;;;;;15.25;10.00;;;;;19.77;83.60;101369.03;5059694;28;45448;-61
2021/08/10 05:09:34;;;;;;;;;11.00;10.25;;;;;19.80;83.46;101371.50;5058445;28;45338;-60
2021/08/10 05:11:59;;;;;;;;;12.50;10.00;;;;;19.84;83.55;101373.06;5059478;28;45676;-60
2021/08/10 05:14:25;;;;;;;;;10.75;10.25;;;;;19.88;83.58;101382.50;5059385;28;46270;-60
2021/08/10 05:16:50;;;;;;;;;12.50;8.00;;;;;19.82;83.03;101372.25;5060056;28;45161;-62
2021/08/10 05:19:16;;;;;;;;;13.25;10.25;;;;;19.79;82.97;101373.28;5060465;28;45317;-62
2021/08/10 05:21:41;;;;;;;;;7.75;7.25;;;;;19.82;83.69;101374.91;5057407;28;45361;-60
2021/08/10 05:24:06;;;;;;;;;12.00;11.25;;;;;19.82;82.96;101367.84;5056893;28;46022;-60
2021/08/10 05:26:32;;;;;;;;;9.00;9.00;;;;;19.78;82.48;101376.00;5057877;28;45458;-60
2021/08/10 05:28:57;;;;;;;;;11.50;9.50;;;;;19.80;82.46;101374.13;5053295;28;45564;-61
2021/08/10 05:31:22;;;;;;;;;9.75;9.50;;;;;19.80;82.08;101371.50;5051715;28;45461;-64
2021/08/10 05:33:47;;;;;;;;;11.00;7.75;;;;;19.84;82.00;101375.69;5047961;28;45476;-64
2021/08/10 05:36:13;;;;;;;;;11.75;10.00;;;;;19.90;82.05;101375.34;5049827;28;45700;-64
2021/08/10 05:38:40;;;;;;;;;6.75;6.50;;;;;19.92;82.22;101369.03;5048585;28;45595;-64
2021/08/10 05:41:05;;;;;;;;;9.00;6.00;;;;;19.94;81.48;101375.06;5057775;28;46015;-64
2021/08/10 05:43:30;;;;;;;;;7.75;6.00;;;;;20.00;81.77;101379.16;5052736;28;45880;-64
2021/08/10 05:45:56;;;;;;;;;8.25;8.25;;;;;20.04;81.84;101380.69;5052865;28;45517;-65
2021/08/10 05:48:23;;;;;;;;;11.75;8.25;;;;;20.07;81.68;101379.66;5051237;28;45403;-65
2021/08/10 05:50:48;;;;;;;;;11.50;8.25;;;;;20.12;81.72;101383.75;5050417;28;45423;-65
2021/08/10 05:53:13;;;;;;;;;9.50;7.25;;;;;20.16;81.21;101381.78;5052346;28;46468;-64
2021/08/10 05:55:39;;;;;;;;;6.50;6.00;;;;;20.19;81.09;101384.22;5050727;28;45443;-63
2021/08/10 05:58:04;;;;;;;;;10.75;7.50;;;;;20.18;81.23;101388.66;5050871;28;45379;-63
2021/08/10 06:00:29;;;;;;;;;7.00;6.00;;;;;20.21;80.88;101379.72;5056118;28;45208;-64
2021/08/10 06:02:55;;;;;;;;;8.50;7.00;;;;;20.21;80.77;101380.56;5056714;28;46011;-64
2021/08/10 06:05:21;;;;;;;;;10.50;7.50;;;;;20.24;80.81;101376.94;5054129;28;45425;-65
2021/08/10 06:07:46;;;;;;;;;9.50;8.00;;;;;20.25;81.04;101386.53;5052327;28;45330;-65
2021/08/10 06:10:11;;;;;;;;;12.00;9.00;;;;;20.29;81.09;101391.53;5056082;28;45227;-66
2021/08/10 06:12:37;;;;;;;;;9.00;8.00;;;;;20.28;80.72;101387.22;5051976;28;46136;-67
2021/08/10 06:15:02;;;;;;;;;11.25;10.50;;;;;20.25;81.20;101379.47;5055553;28;45212;-66
2021/08/10 06:17:27;;;;;;;;;16.50;8.25;;;;;20.30;81.25;101379.19;5051666;28;45246;-67
2021/08/10 06:19:53;;;;;;;;;8.25;7.50;;;;;20.39;79.69;101377.81;5052363;28;45963;-66
2021/08/10 06:22:18;;;;;;;;;6.25;6.00;;;;;20.41;79.47;101389.16;5058858;28;53263;-67
2021/08/10 06:24:43;;;;;;;;;8.00;8.00;;;;;20.32;79.79;101391.38;5058890;28;45678;-66
2021/08/10 06:27:09;;;;;;;;;8.00;6.00;;;;;20.28;79.56;101386.34;5058846;28;45399;-68
2021/08/10 06:29:34;;;;;;;;;7.00;6.50;;;;;20.23;79.66;101376.06;5059484;28;45366;-66
2021/08/10 06:31:59;;;;;;;;;9.75;7.25;;;;;20.34;80.02;101380.72;5059228;28;46127;-65
2021/08/10 06:34:25;;;;;;;;;8.00;8.00;;;;;20.46;80.02;101381.84;5059601;28;45413;-65
2021/08/10 06:36:50;;;;;;;;;10.25;7.00;;;;;20.57;80.00;101384.69;5057818;28;45375;-64
2021/08/10 06:39:15;;;;;;;;;6.75;5.25;;;;;20.68;79.20;101379.63;5051988;28;45564;-63
2021/08/10 06:41:41;;;;;;;;;8.75;5.50;;;;;20.78;79.27;101377.28;5050246;28;46022;-64
2021/08/10 06:44:06;;;;;;;;;9.75;9.00;;;;;20.85;78.70;101378.63;5051753;28;45432;-64
2021/08/10 06:46:31;;;;;;;;;7.50;6.25;;;;;20.90;78.15;101385.31;5058630;28;46055;-64
2021/08/10 06:48:57;;;;;;;;;9.00;7.00;;;;;20.85;77.98;101386.56;5058909;28;45347;-64
2021/08/10 06:51:22;;;;;;;;;9.50;7.25;;;;;20.90;78.31;101373.91;5058510;28;46080;-64
2021/08/10 06:53:48;;;;;;;;;6.50;6.25;;;;;20.92;77.44;101380.78;5058651;28;45364;-64
2021/08/10 06:56:13;;;;;;;;;6.50;6.50;;;;;20.95;77.91;101391.16;5059075;28;45227;-62
2021/08/10 06:58:38;;;;;;;;;7.00;7.00;;;;;21.05;77.59;101380.06;5058286;28;45255;-65
2021/08/10 07:01:05;;;;;;;;;8.50;7.00;;;;;21.11;77.15;101380.53;5058241;28;45423;-64
2021/08/10 07:03:31;;;;;;;;;6.75;4.75;;;;;21.08;76.45;101385.16;5052931;28;45605;-64
2021/08/10 07:05:57;;;;;;;;;4.50;4.50;;;;;21.07;76.77;101383.47;5059066;28;45239;-64
2021/08/10 07:08:22;;;;;;;;;8.50;6.25;;;;;21.12;76.50;101384.00;5048396;28;45333;-65
2021/08/10 07:10:47;;;;;;;;;7.50;6.25;;;;;21.20;76.55;101390.53;5058609;28;45358;-65
2021/08/10 07:13:13;;;;;;;;;10.25;8.50;;;;;21.27;75.52;101385.75;5058858;28;45274;-65
2021/08/10 07:15:38;;;;;;;;;9.25;6.25;;;;;21.25;74.61;101382.34;5059262;28;45268;-65
2021/08/10 07:18:03;;;;;;;;;8.75;6.75;;;;;21.23;74.90;101386.88;5058903;28;45720;-65
2021/08/10 07:20:29;;;;;;;;;4.00;4.00;;;;;21.28;74.80;101391.91;5049551;28;46193;-65
2021/08/10 07:22:54;;;;;;;;;9.00;5.00;;;;;21.30;74.90;101393.50;5054534;28;45280;-65
2021/08/10 07:25:20;;;;;;;;;7.75;6.00;;;;;21.34;74.68;101392.34;5050757;28;45410;-64
2021/08/10 07:27:46;;;;;;;;;6.25;5.50;;;;;21.34;74.04;101392.34;5052323;28;45596;-63
2021/08/10 07:30:12;;;;;;;;;8.25;6.00;;;;;21.21;73.47;101400.16;5052138;28;45347;-63
2021/08/10 07:32:38;;;;;;;;;10.50;7.50;;;;;21.18;74.30;101394.19;5053762;28;45360;-63
2021/08/10 07:35:04;;;;;;;;;5.00;3.00;;;;;21.21;73.89;101399.28;5062140;28;45303;-63
2021/08/10 07:37:30;;;;;;;;;7.50;6.00;;;;;21.19;74.08;101399.38;5061820;28;45177;-64
2021/08/10 07:39:55;;;;;;;;;6.75;6.25;;;;;21.21;74.34;101404.59;5061911;28;45349;-63
2021/08/10 07:42:21;;;;;;;;;7.25;6.00;;;;;21.36;73.90;101410.75;5070930;27;45359;-63
2021/08/10 07:44:46;;;;;;;;;7.00;7.00;;;;;21.49;73.42;101403.78;5057097;28;45437;-63
2021/08/10 07:47:11;;;;;;;;;8.00;5.75;;;;;21.66;72.96;101406.22;5061707;28;45492;-62
2021/08/10 07:49:37;;;;;;;;;5.00;5.00;;;;;21.82;71.71;101401.66;5061763;28;45896;-63
2021/08/10 07:52:04;;;;;;;;;11.00;7.00;;;;;21.79;71.51;101404.47;5062110;28;45441;-64
2021/08/10 07:54:29;;;;;;;;;6.75;5.00;;;;;21.71;72.36;101406.75;5061867;28;45242;-63
2021/08/10 07:56:56;;;;;;;;;66.00;50.25;;;;;21.70;71.68;101405.06;5061473;28;45441;-64
2021/08/10 07:59:21;;;;;;;;;9.25;6.25;;;;;21.73;69.96;101409.31;5061642;28;45904;-64
2021/08/10 08:01:47;;;;;;;;;7.00;7.00;;;;;21.70;71.20;101409.50;5061873;28;45328;-64
2021/08/10 08:04:12;;;;;;;;;7.00;7.00;;;;;21.72;72.11;101419.03;5061839;28;45485;-63
2021/08/10 08:06:37;;;;;;;;;6.75;6.00;;;;;21.84;71.13;101409.50;5061467;28;45291;-62
2021/08/10 08:09:03;;;;;;;;;9.00;7.00;;;;;21.85;71.00;101405.91;5061565;28;45412;-61
2021/08/10 08:11:28;;;;;;;;;7.25;7.00;;;;;21.93;70.70;101406.25;5061285;28;45522;-64
2021/08/10 08:13:53;;;;;;;;;11.00;5.75;;;;;22.04;70.28;101414.38;5061758;28;45374;-64
2021/08/10 08:16:19;;;;;;;;;9.50;6.50;;;;;22.16;70.02;101407.44;5061918;28;45471;-64
2021/08/10 08:18:45;;;;;;;;;7.00;6.50;;;;;22.31;70.35;101410.88;5062242;28;46085;-64
2021/08/10 08:21:10;;;;;;;;;9.00;6.25;;;;;22.49;69.84;101414.09;5061951;28;45391;-64
2021/08/10 08:23:37;;;;;;;;;4.25;4.00;;;;;22.61;69.52;101411.47;5061364;28;45421;-64
2021/08/10 08:26:05;;;;;;;;;8.00;6.25;;;;;22.66;67.25;101408.53;5061570;28;45268;-64
2021/08/10 08:28:31;;;;;;;;;8.00;7.75;;;;;22.68;68.94;101409.28;5061285;28;45481;-64
2021/08/10 08:30:57;;;;;;;;;9.50;7.50;;;;;22.78;68.35;101408.53;5060960;28;45275;-64
2021/08/10 08:33:22;;;;;;;;;9.75;8.50;;;;;23.00;68.26;101415.91;5061006;28;45268;-64
2021/08/10 08:35:47;;;;;;;;;7.75;6.75;;;;;23.16;68.05;101415.69;5060871;28;45236;-64
2021/08/10 08:38:13;;;;;;;;;7.50;7.50;;;;;23.38;67.75;101410.56;5060944;28;46655;-64
2021/08/10 08:40:44;;;;;;;;;9.75;8.00;;;;;23.54;67.45;101412.16;5061399;28;45475;-65
2021/08/10 08:43:10;;;;;;;;;7.25;6.50;;;;;23.66;65.92;101406.00;5060752;28;45167;-62
2021/08/10 08:45:35;;;;;;;;;6.50;5.75;;;;;23.72;65.22;101402.91;5060628;28;45338;-65
2021/08/10 08:48:04;;;;;;;;;4.75;4.75;;;;;23.82;66.36;101395.97;5060941;28;46568;-64
2021/08/10 08:50:32;;;;;;;;;6.25;6.25;;;;;23.90;65.63;101401.56;5060385;28;45547;-64
2021/08/10 08:53:00;;;;;;;;;6.00;5.00;;;;;23.97;64.94;101405.47;5060767;28;45219;-69
2021/08/10 08:55:25;;;;;;;;;11.25;6.25;;;;;24.08;65.19;101399.38;5060561;28;45440;-63
2021/08/10 08:57:51;;;;;;;;;6.00;6.00;;;;;24.26;64.26;101394.53;5060713;28;46170;-64
2021/08/10 09:00:18;;;;;;;;;12.75;7.50;;;;;24.25;63.61;101399.00;5060648;28;45446;-65
2021/08/10 09:02:44;;;;;;;;;10.75;7.75;;;;;24.26;63.44;101394.53;5061041;28;45337;-64
2021/08/10 09:05:11;;;;;;;;;6.75;6.75;;;;;24.33;62.95;101403.75;5059384;28;45542;-64
2021/08/10 09:07:36;;;;;;;;;8.50;6.50;;;;;24.34;62.19;101407.25;5060437;28;45408;-63
2021/08/10 09:10:13;;;;;;;;;7.75;6.75;;;;;24.27;62.85;101404.19;5060238;28;45169;-64
2021/08/10 09:12:47;;;;;;;;;6.50;6.00;;;;;24.29;62.13;101401.44;5060789;28;45304;-64
2021/08/10 09:15:31;;;;;;;;;12.25;9.25;;;;;24.38;62.19;101408.72;5060601;28;45474;-64
2021/08/10 09:18:08;;;;;;;;;18.50;8.75;;;;;24.36;61.92;101410.63;5060416;28;46336;-63
2021/08/10 09:20:33;;;;;;;;;7.25;6.00;;;;;24.40;60.51;101407.63;5060689;28;45265;-63
2021/08/10 09:22:59;;;;;;;;;18.75;13.00;;;;;24.37;60.90;101409.69;5060177;28;45220;-63
2021/08/10 09:25:24;;;;;;;;;12.00;9.25;;;;;24.41;60.24;101405.81;5060264;28;45214;-61
2021/08/10 09:28:04;;;;;;;;;15.75;13.50;;;;;24.35;60.38;101406.28;5060054;28;45390;-62
2021/08/10 09:30:30;;;;;;;;;8.75;7.00;;;;;24.48;61.28;101417.69;5060135;28;47046;-61
2021/08/10 09:33:03;;;;;;;;;8.75;8.00;;;;;24.57;58.83;101407.22;5059485;28;45547;-60
2021/08/10 09:35:35;;;;;;;;;13.50;9.25;;;;;24.44;58.56;101403.81;5059754;28;45784;-62
2021/08/10 09:38:15;;;;;;;;;5.75;5.00;;;;;24.30;60.12;101403.97;5059983;28;45467;-60
2021/08/10 09:40:46;;;;;;;;;6.50;5.50;;;;;24.33;61.00;101395.78;5059912;28;45432;-60
2021/08/10 09:43:25;;;;;;;;;7.75;7.50;;;;;24.48;60.98;101393.78;5059170;28;45368;-67
2021/08/10 09:46:11;;;;;;;;;26.75;18.25;;;;;24.70;60.62;101390.34;5046509;28;45323;-61
2021/08/10 09:48:39;;;;;;;;;6.00;5.00;;;;;24.82;59.43;101392.03;5057046;28;45609;-62
2021/08/10 09:51:16;;;;;;;;;8.25;5.25;;;;;24.88;58.44;101389.78;5057370;28;45839;-62
2021/08/10 09:53:52;;;;;;;;;4.25;4.00;;;;;24.91;56.90;101390.50;5057658;28;45410;-62
2021/08/10 09:56:17;;;;;;;;;5.00;5.00;;;;;24.81;56.47;101395.66;5057572;28;46092;-61
2021/08/10 09:58:59;;;;;;;;;5.75;4.75;;;;;24.64;54.20;101386.34;5058356;28;45468;-60
2021/08/10 10:01:39;;;;;;;;;5.25;4.00;;;;;24.36;54.33;101389.38;5059046;28;45637;-63
2021/08/10 10:04:18;;;;;;;;;5.00;3.00;;;;;24.21;53.79;101391.34;5059405;28;45451;-60
2021/08/10 10:06:45;;;;;;;;;5.25;5.00;;;;;24.03;54.53;101396.22;5058716;28;45251;-64
2021/08/10 10:09:12;;;;;;;;;7.75;4.75;;;;;23.94;55.89;101389.78;5059036;28;45279;-62
2021/08/10 10:11:40;;;;;;;;;5.75;4.00;;;;;23.89;55.32;101394.56;5058767;28;45599;-64
2021/08/10 10:14:06;;;;;;;;;5.50;4.50;;;;;23.97;54.93;101397.50;5059290;28;45439;-61
2021/08/10 10:16:33;;;;;;;;;2.00;2.00;;;;;24.14;55.73;101395.41;5059107;28;45171;-62
2021/08/10 10:19:12;;;;;;;;;9.25;4.75;;;;;24.35;55.93;101395.66;5059080;28;46236;-63
2021/08/10 10:21:42;;;;;;;;;5.50;5.00;;;;;24.71;55.93;101395.53;5058910;28;45398;-64
2021/08/10 10:24:09;;;;;;;;;3.50;3.00;;;;;24.87;53.77;101396.06;5059123;28;45440;-63
2021/08/10 10:26:38;;;;;;;;;5.75;5.00;;;;;24.81;54.22;101387.69;5059368;28;45299;-63
2021/08/10 10:29:04;;;;;;;;;4.75;4.75;;;;;24.75;54.20;101388.16;5057642;28;47147;-64
2021/08/10 10:31:31;;;;;;;;;4.50;4.50;;;;;24.79;55.07;101389.63;5059073;28;45358;-62
2021/08/10 10:33:58;;;;;;;;;7.00;5.50;;;;;24.95;53.15;101391.94;5059155;28;45295;-62
2021/08/10 10:36:23;;;;;;;;;7.00;4.00;;;;;24.98;52.18;101391.72;5059034;28;45258;-62
2021/08/10 10:38:52;;;;;;;;;5.50;3.25;;;;;25.00;52.82;101395.97;5057599;28;48249;-66
2021/08/10 10:41:18;;;;;;;;;5.75;5.75;;;;;25.13;53.41;101383.41;5059040;28;45493;-61
2021/08/10 10:43:44;;;;;;;;;5.25;3.50;;;;;25.41;54.14;101383.88;5059074;28;45485;-62
2021/08/10 10:46:39;;;;;;;;;3.75;3.00;;;;;25.63;50.82;101383.88;5058701;28;45220;-63
2021/08/10 10:49:07;;;;;;;;;4.25;3.25;;;;;25.68;52.39;101384.38;5057120;28;47283;-62
2021/08/10 10:51:38;;;;;;;;;7.00;4.25;;;;;25.77;51.42;101369.47;5038160;28;46020;-64
2021/08/10 10:54:26;;;;;;;;;5.00;5.00;;;;;25.92;50.52;101368.22;5052695;28;45397;-67
2021/08/10 10:56:54;;;;;;;;;8.00;6.00;;;;;25.99;50.58;101372.06;5062283;28;45219;-67
2021/08/10 10:59:21;;;;;;;;;6.00;4.00;;;;;26.13;50.92;101375.41;5062730;28;46278;-66
2021/08/10 11:01:46;;;;;;;;;11.75;6.50;;;;;26.37;50.80;101368.91;5062375;28;45472;-66
2021/08/10 11:04:12;;;;;;;;;5.25;5.00;;;;;26.66;50.29;101373.63;5063343;28;45273;-65
2021/08/10 11:06:49;;;;;;;;;7.25;5.00;;;;;26.70;48.20;101379.53;5061906;28;45275;-65
2021/08/10 11:09:35;;;;;;;;;5.75;4.25;;;;;26.61;48.39;101378.47;5062191;28;45609;-67
2021/08/10 11:12:01;;;;;;;;;6.25;6.25;;;;;26.53;49.16;101381.81;5060128;28;45576;-66
2021/08/10 11:14:35;;;;;;;;;6.00;5.25;;;;;26.50;47.66;101365.22;5062125;28;45364;-66
2021/08/10 11:17:18;;;;;;;;;4.75;4.75;;;;;26.50;48.96;101367.91;5062182;28;45283;-62
2021/08/10 11:19:46;;;;;;;;;4.00;4.00;;;;;26.60;47.72;101377.63;5061879;28;45941;-66
2021/08/10 11:22:14;;;;;;;;;4.00;3.00;;;;;26.58;47.75;101374.25;5061830;28;45365;-66
2021/08/10 11:25:00;;;;;;;;;4.25;4.25;;;;;26.57;48.84;101372.56;5061998;28;45287;-67
2021/08/10 11:27:39;;;;;;;;;5.00;5.00;;;;;26.68;48.24;101374.34;5062152;28;45426;-68